Lewistown, MT

10:25 AM MDT on April 28, 2017 (GMT -0600)
Lewistown Municipal | | Change Station

Elev 4167 ft 47.05 °N, 109.47 °W | Updated 16 minutes ago

Light Rain
Light Rain
37 °F
Feels Like 37 °F
N
0
Wind Variable Wind from North

Today
High -- | Low -- °F
--% Chance of Precip.
Yesterday
High -- | Low -- °F
Precip. -- in
Pressure 30.00 in
Visibility 10.0 miles
Clouds Mostly Cloudy 800 ft
Mostly Cloudy 1600 ft
Overcast 2900 ft
Dew Point 34 °F
Humidity 89%
Rainfall 0.11 in
Snow Depth Not available.
6:06 AM 8:24 PM
Waxing Crescent, 7% visible
SPECI KLWT 281609Z AUTO 00000KT 10SM -RA BKN008 BKN016 OVC029 03/01 A3000 RMK AO2 P0000 T00280011
Pressure 30.00 in
Visibility 10.0 miles
Clouds Mostly Cloudy 800 ft
Mostly Cloudy 1600 ft
Overcast 2900 ft
Dew Point 34 °F
Humidity 89%
Rainfall 0.11 in
Snow Depth Not available.
6:06 AM 8:24 PM
Waxing Crescent, 7% visible
SPECI KLWT 281609Z AUTO 00000KT 10SM -RA BKN008 BKN016 OVC029 03/01 A3000 RMK AO2 P0000 T00280011

Get Severe Weather Alerts

Thanks for signing up!

Be on the lookout for a verification email in your inbox.

You'll start receiving the daily forecast at 8 AM.

×

10-Day Weather Forecast

Almanac

Astronomy

Apr. 28, 2017 Rise Set
Actual Time
Civil Twilight
Nautical Twilight
Astronomical Twilight
Moon
Length of Visible Light
Length of Day
Tomorrow will be .
, % of the Moon is Illuminated

Today's Extremes

State Highs State Lows

Community

WunderPhotos

WunderBlog® & News

Nearby

Air Quality

  Air Quality AQ Index Pollutant
Not available.

Snow Depth

Station Depth Elevation

Earthquake Activity

City Distance Mag. Time & Date
Minimum magnitude displayed is 2.5.

Coastal Water Temperatures

Place Temperature

Stations

Nearby Weather Stations

Station Location Temp. Windchill Dew Point Humidity Wind Precip. Elev Updated Type
                   

Watches & Warnings

There are currently no watches in effect.